Time;durP1;ratioP1;P1;durP2;ratioP2;P2;SDS_P1;SDS_P2;PMS_P1;PMS_P2;Temp;Humidity;BMP_temperature;BMP_pressure;BME280_temperature;BME280_humidity;BME280_pressure;Samples;Min_cycle;Max_cycle;Signal;HPM_P1;HPM_P2
2023/12/24 00:02:00;;;;;;;0.10;0.10;;;9.50;99.90;;;;;;4961211;28;20050;-69
2023/12/24 00:04:26;;;;;;;0.68;0.55;;;9.50;99.90;;;;;;4963883;28;20054;-69
2023/12/24 00:06:51;;;;;;;0.10;0.10;;;9.50;99.90;;;;;;4964107;28;20054;-69
2023/12/24 00:09:17;;;;;;;0.10;0.10;;;9.50;99.90;;;;;;4959051;28;20035;-68
2023/12/24 00:11:42;;;;;;;0.80;0.40;;;9.50;99.90;;;;;;4964321;28;20039;-69
2023/12/24 00:14:08;;;;;;;0.13;0.13;;;9.50;99.90;;;;;;4960481;28;20098;-69
2023/12/24 00:16:33;;;;;;;11.80;1.83;;;9.50;99.90;;;;;;4972515;28;20047;-68
2023/12/24 00:18:59;;;;;;;0.20;0.20;;;9.50;99.90;;;;;;4957065;28;20071;-68
2023/12/24 00:21:25;;;;;;;0.20;0.20;;;9.50;99.90;;;;;;4963207;28;20129;-68
2023/12/24 00:23:50;;;;;;;0.10;0.10;;;9.50;99.90;;;;;;4961550;28;20402;-69
2023/12/24 00:26:16;;;;;;;0.10;0.10;;;9.40;99.90;;;;;;4971180;28;20042;-69
2023/12/24 00:28:42;;;;;;;1.10;1.00;;;9.50;99.90;;;;;;4968086;28;20046;-69
2023/12/24 00:31:08;;;;;;;0.10;0.10;;;9.40;99.90;;;;;;4965538;28;20042;-68
2023/12/24 00:33:33;;;;;;;1.65;1.55;;;9.50;99.90;;;;;;4964990;28;20046;-69
2023/12/24 00:35:59;;;;;;;2.53;1.55;;;9.50;99.90;;;;;;4963929;28;20043;-69
2023/12/24 00:38:24;;;;;;;0.73;0.73;;;9.50;99.90;;;;;;4984566;28;20057;-69
2023/12/24 00:40:50;;;;;;;0.05;0.05;;;9.50;99.90;;;;;;4960700;28;20051;-69
2023/12/24 00:43:15;;;;;;;0.10;0.10;;;9.50;99.90;;;;;;4962512;28;20478;-69
2023/12/24 00:45:41;;;;;;;2.63;1.17;;;9.40;99.90;;;;;;4971700;28;20410;-69
2023/12/24 00:48:09;;;;;;;0.82;0.82;;;9.50;99.90;;;;;;4967286;28;20102;-69
2023/12/24 00:50:35;;;;;;;3.72;2.53;;;9.40;99.90;;;;;;4966504;28;20054;-69
2023/12/24 00:53:00;;;;;;;0.10;0.10;;;9.40;99.90;;;;;;4970420;28;20045;-69
2023/12/24 00:55:26;;;;;;;1.92;1.75;;;9.40;99.90;;;;;;4968609;28;20038;-69
2023/12/24 00:57:51;;;;;;;1.38;1.27;;;9.40;99.90;;;;;;4960223;28;20050;-69
2023/12/24 01:00:17;;;;;;;0.90;0.75;;;9.40;99.90;;;;;;4968485;28;20049;-69
2023/12/24 01:02:42;;;;;;;0.10;0.10;;;9.40;99.90;;;;;;4960419;28;20464;-69
2023/12/24 01:05:08;;;;;;;0.10;0.10;;;9.40;99.90;;;;;;4970163;28;20502;-69
2023/12/24 01:07:34;;;;;;;0.10;0.10;;;9.40;99.90;;;;;;4962108;28;20042;-69
2023/12/24 01:09:59;;;;;;;0.08;0.08;;;9.40;99.90;;;;;;4970978;28;20049;-69
2023/12/24 01:12:25;;;;;;;0.10;0.10;;;9.50;99.90;;;;;;4960100;28;20186;-69
2023/12/24 01:14:50;;;;;;;0.10;0.10;;;9.50;99.90;;;;;;4960562;28;20508;-69
2023/12/24 01:17:16;;;;;;;2.55;1.45;;;9.50;99.90;;;;;;4954173;28;20045;-69
2023/12/24 01:19:43;;;;;;;0.57;0.57;;;9.50;99.90;;;;;;4973657;28;20043;-69
2023/12/24 01:22:08;;;;;;;0.08;0.08;;;9.50;99.90;;;;;;4968950;28;20739;-69
2023/12/24 01:24:34;;;;;;;0.10;0.10;;;9.50;99.90;;;;;;4961804;28;20245;-69
2023/12/24 01:26:59;;;;;;;1.20;1.20;;;9.40;99.90;;;;;;4970154;28;20557;-69
2023/12/24 01:29:25;;;;;;;0.00;0.00;;;9.50;99.90;;;;;;4965153;28;20487;-69
2023/12/24 01:31:50;;;;;;;0.00;0.00;;;9.40;99.90;;;;;;4960985;28;20466;-69
2023/12/24 01:34:16;;;;;;;0.10;0.10;;;9.40;99.90;;;;;;4961648;28;20035;-68
2023/12/24 01:36:42;;;;;;;0.30;0.30;;;9.40;99.90;;;;;;4963161;28;20408;-69
2023/12/24 01:39:07;;;;;;;0.15;0.15;;;9.40;99.90;;;;;;4973424;28;20050;-68
2023/12/24 01:41:34;;;;;;;4.75;2.30;;;9.40;99.90;;;;;;4964663;28;20098;-68
2023/12/24 01:43:59;;;;;;;0.10;0.10;;;9.40;99.90;;;;;;4966307;28;20482;-69
2023/12/24 01:46:25;;;;;;;0.10;0.10;;;9.50;99.90;;;;;;4973116;28;20046;-68
2023/12/24 01:48:52;;;;;;;0.30;0.30;;;9.50;99.90;;;;;;4965945;28;20050;-68
2023/12/24 01:51:20;;;;;;;0.25;0.25;;;9.50;99.90;;;;;;4966671;28;20117;-68
2023/12/24 01:53:48;;;;;;;0.22;0.22;;;9.50;99.90;;;;;;4959580;28;20070;-68
2023/12/24 01:56:15;;;;;;;0.03;0.03;;;9.50;99.90;;;;;;4961880;28;20051;-68
2023/12/24 01:58:41;;;;;;;2.72;1.55;;;9.50;99.90;;;;;;4968037;28;20070;-69
2023/12/24 02:01:07;;;;;;;2.00;1.25;;;9.50;99.90;;;;;;4963157;28;20062;-69
2023/12/24 02:03:33;;;;;;;0.10;0.10;;;9.50;99.90;;;;;;4963935;28;20114;-68
2023/12/24 02:06:00;;;;;;;0.03;0.03;;;9.50;99.90;;;;;;4954829;28;20047;-68
2023/12/24 02:08:26;;;;;;;0.20;0.20;;;9.50;99.90;;;;;;4977627;28;20053;-69
2023/12/24 02:10:51;;;;;;;0.05;0.05;;;9.50;99.90;;;;;;4964813;28;20163;-68
2023/12/24 02:13:18;;;;;;;0.05;0.05;;;9.50;99.90;;;;;;4969472;28;20073;-68
2023/12/24 02:15:53;;;;;;;0.10;0.10;;;9.50;99.90;;;;;;4970376;28;20042;-68
2023/12/24 02:18:19;;;;;;;2.13;0.82;;;9.50;99.90;;;;;;4956335;28;20414;-69
2023/12/24 02:20:46;;;;;;;0.43;0.43;;;9.50;99.90;;;;;;4954968;28;20050;-68
2023/12/24 02:23:12;;;;;;;2.95;1.30;;;9.50;99.90;;;;;;4977289;28;20546;-68
2023/12/24 02:25:37;;;;;;;0.15;0.15;;;9.50;99.90;;;;;;4960133;28;20047;-68
2023/12/24 02:28:19;;;;;;;0.10;0.10;;;9.50;99.90;;;;;;4980915;28;20042;-68
2023/12/24 02:30:49;;;;;;;7.35;1.55;;;9.50;99.90;;;;;;4961923;28;20403;-68
2023/12/24 02:33:17;;;;;;;2.90;1.98;;;9.50;99.90;;;;;;4955213;28;20594;-69
2023/12/24 02:35:43;;;;;;;3.42;1.55;;;9.50;99.90;;;;;;4963156;28;20546;-68
2023/12/24 02:38:09;;;;;;;3.90;2.08;;;9.50;99.90;;;;;;4972220;28;20055;-68
2023/12/24 02:40:35;;;;;;;5.63;3.78;;;9.50;99.90;;;;;;4956963;28;20070;-68
2023/12/24 02:43:00;;;;;;;0.10;0.10;;;9.50;99.90;;;;;;4980334;28;20038;-68
2023/12/24 02:45:26;;;;;;;0.28;0.28;;;9.60;99.90;;;;;;4962999;28;20431;-68
2023/12/24 02:47:51;;;;;;;0.00;0.00;;;9.60;99.90;;;;;;4963546;28;20050;-68
2023/12/24 02:50:18;;;;;;;0.57;0.57;;;9.60;99.90;;;;;;4976323;28;20098;-68
2023/12/24 02:52:44;;;;;;;0.22;0.22;;;9.60;99.90;;;;;;4971343;28;20490;-68
2023/12/24 02:55:10;;;;;;;0.10;0.10;;;9.60;99.90;;;;;;4968142;28;20628;-69
2023/12/24 02:57:36;;;;;;;0.10;0.10;;;9.60;99.90;;;;;;4973176;28;20039;-68
2023/12/24 03:00:02;;;;;;;0.15;0.15;;;9.60;99.90;;;;;;4962887;28;20469;-68
2023/12/24 03:02:27;;;;;;;0.10;0.10;;;9.60;99.90;;;;;;4969583;28;20477;-68
2023/12/24 03:04:53;;;;;;;0.90;0.90;;;9.60;99.90;;;;;;4975312;28;20055;-68
2023/12/24 03:07:18;;;;;;;0.10;0.10;;;9.60;99.90;;;;;;4969409;28;20058;-68
2023/12/24 03:09:44;;;;;;;1.15;1.08;;;9.70;99.90;;;;;;4970196;28;20041;-68
2023/12/24 03:12:09;;;;;;;0.10;0.10;;;9.70;99.90;;;;;;4963785;28;20526;-68
2023/12/24 03:14:35;;;;;;;0.00;0.00;;;9.70;99.90;;;;;;4971580;28;20039;-68
2023/12/24 03:17:00;;;;;;;0.00;0.00;;;9.70;99.90;;;;;;4971239;28;20513;-67
2023/12/24 03:19:26;;;;;;;0.10;0.10;;;9.70;99.90;;;;;;4964075;28;20151;-67
2023/12/24 03:21:51;;;;;;;0.00;0.00;;;9.70;99.90;;;;;;4967394;28;20043;-67
2023/12/24 03:24:17;;;;;;;0.43;0.43;;;9.70;99.90;;;;;;4970511;28;20081;-67
2023/12/24 03:26:42;;;;;;;5.97;3.45;;;9.70;99.90;;;;;;4974155;28;20081;-67
2023/12/24 03:29:12;;;;;;;1.95;0.82;;;9.70;99.90;;;;;;4967473;28;20043;-67
2023/12/24 03:31:37;;;;;;;0.10;0.10;;;9.70;99.90;;;;;;4967152;28;20042;-67
2023/12/24 03:34:03;;;;;;;0.10;0.10;;;9.70;99.90;;;;;;4969759;28;20434;-67
2023/12/24 03:36:29;;;;;;;0.00;0.00;;;9.70;99.90;;;;;;4966095;28;20425;-68
2023/12/24 03:38:54;;;;;;;0.10;0.10;;;9.70;99.90;;;;;;4968622;28;20429;-67
2023/12/24 03:41:20;;;;;;;0.00;0.00;;;9.70;99.90;;;;;;4967027;28;20078;-67
2023/12/24 03:43:45;;;;;;;0.38;0.38;;;9.70;99.90;;;;;;4966810;28;20182;-67
2023/12/24 03:46:11;;;;;;;0.00;0.00;;;9.70;99.90;;;;;;4963797;28;20047;-67
2023/12/24 03:48:37;;;;;;;0.03;0.03;;;9.70;99.90;;;;;;4961250;28;20042;-67
2023/12/24 03:51:02;;;;;;;1.05;1.02;;;9.80;99.90;;;;;;4963058;28;20110;-67
2023/12/24 03:53:28;;;;;;;0.30;0.30;;;9.80;99.90;;;;;;4973940;28;20046;-67
2023/12/24 03:55:54;;;;;;;0.55;0.55;;;9.80;99.90;;;;;;4961386;28;20480;-67
2023/12/24 03:58:20;;;;;;;0.10;0.10;;;9.80;99.90;;;;;;4960079;28;20053;-67
2023/12/24 04:00:45;;;;;;;0.73;0.73;;;9.80;99.90;;;;;;4971607;28;20065;-67
2023/12/24 04:03:11;;;;;;;0.10;0.10;;;9.80;99.90;;;;;;4971834;28;20470;-67
2023/12/24 04:05:36;;;;;;;0.10;0.10;;;9.80;99.90;;;;;;4964382;28;20042;-67
2023/12/24 04:08:04;;;;;;;0.10;0.10;;;9.80;99.90;;;;;;4966633;28;20121;-67
2023/12/24 04:10:30;;;;;;;0.10;0.10;;;9.80;99.90;;;;;;4965906;28;20466;-67
2023/12/24 04:13:00;;;;;;;0.08;0.08;;;9.80;99.90;;;;;;4968240;28;20047;-67
2023/12/24 04:15:25;;;;;;;0.10;0.10;;;9.80;99.90;;;;;;4964120;28;20046;-67
2023/12/24 04:17:51;;;;;;;1.10;1.00;;;9.80;99.90;;;;;;4966963;28;20043;-67
2023/12/24 04:20:17;;;;;;;0.10;0.10;;;9.80;99.90;;;;;;4965841;28;20069;-67
2023/12/24 04:22:42;;;;;;;0.00;0.00;;;9.80;99.90;;;;;;4956505;28;20054;-67
2023/12/24 04:25:08;;;;;;;1.88;1.35;;;9.80;99.90;;;;;;4961859;28;20043;-67
2023/12/24 04:27:33;;;;;;;0.10;0.10;;;9.80;99.90;;;;;;4962480;28;20046;-68
2023/12/24 04:29:59;;;;;;;0.10;0.10;;;9.90;99.90;;;;;;4969354;28;20561;-67
2023/12/24 04:32:24;;;;;;;0.32;0.32;;;9.90;99.90;;;;;;4967960;28;20443;-67
2023/12/24 04:34:50;;;;;;;1.85;0.38;;;9.90;99.90;;;;;;4956204;28;20047;-67
2023/12/24 04:37:15;;;;;;;0.20;0.20;;;9.90;99.90;;;;;;4965660;28;20047;-67
2023/12/24 04:39:41;;;;;;;0.10;0.10;;;9.90;99.90;;;;;;4987999;28;20070;-67
2023/12/24 04:42:07;;;;;;;0.52;0.52;;;9.90;99.90;;;;;;4961888;28;20101;-67
2023/12/24 04:44:36;;;;;;;7.13;2.45;;;9.90;99.90;;;;;;4965714;28;20046;-67
2023/12/24 04:47:02;;;;;;;0.10;0.10;;;9.90;99.90;;;;;;4965100;28;20450;-67
2023/12/24 04:49:28;;;;;;;2.38;0.73;;;9.90;99.90;;;;;;4980838;28;20050;-67
2023/12/24 04:51:54;;;;;;;0.00;0.00;;;10.00;99.90;;;;;;4958949;28;20047;-67
2023/12/24 04:54:20;;;;;;;4.90;1.20;;;10.00;99.90;;;;;;4954153;28;20048;-67
2023/12/24 04:56:46;;;;;;;1.83;1.52;;;10.00;99.90;;;;;;4967769;28;20105;-67
2023/12/24 04:59:11;;;;;;;0.90;0.75;;;10.00;99.90;;;;;;4965720;28;20050;-67
2023/12/24 05:01:37;;;;;;;0.10;0.10;;;10.00;99.90;;;;;;4958459;28;20200;-67
2023/12/24 05:04:03;;;;;;;24.45;1.58;;;10.10;99.90;;;;;;4956597;28;20549;-67
2023/12/24 05:06:29;;;;;;;0.30;0.30;;;10.10;99.90;;;;;;4958260;28;20398;-67
2023/12/24 05:08:54;;;;;;;0.10;0.10;;;10.10;99.90;;;;;;4965548;28;20043;-67
2023/12/24 05:11:20;;;;;;;0.10;0.10;;;10.10;99.90;;;;;;4960316;28;20119;-68
2023/12/24 05:13:46;;;;;;;0.52;0.52;;;10.10;99.90;;;;;;4964672;28;20054;-68
2023/12/24 05:16:11;;;;;;;0.10;0.10;;;10.10;99.90;;;;;;4965762;28;20047;-68
2023/12/24 05:18:37;;;;;;;0.10;0.10;;;10.10;99.90;;;;;;4963855;28;20035;-68
2023/12/24 05:21:03;;;;;;;1.30;0.85;;;10.10;99.90;;;;;;4960458;28;20121;-68
2023/12/24 05:23:28;;;;;;;0.40;0.40;;;10.10;99.90;;;;;;4964491;28;20084;-68
2023/12/24 05:25:54;;;;;;;0.95;0.90;;;10.10;99.90;;;;;;4962321;28;20047;-68
2023/12/24 05:28:20;;;;;;;9.57;4.95;;;10.10;99.90;;;;;;4961403;28;20394;-68
2023/12/24 05:30:45;;;;;;;0.10;0.10;;;10.20;99.90;;;;;;4957758;28;20588;-68
2023/12/24 05:33:11;;;;;;;0.63;0.63;;;10.20;99.90;;;;;;4965464;28;20051;-68
2023/12/24 05:35:36;;;;;;;0.30;0.30;;;10.20;99.90;;;;;;4958894;28;20452;-68
2023/12/24 05:38:02;;;;;;;0.10;0.10;;;10.20;99.90;;;;;;4963105;28;20090;-68
2023/12/24 05:40:28;;;;;;;0.00;0.00;;;10.20;99.90;;;;;;4961880;28;20137;-68
2023/12/24 05:42:54;;;;;;;0.95;0.95;;;10.20;99.90;;;;;;4964083;28;20046;-67
2023/12/24 05:45:20;;;;;;;0.10;0.10;;;10.20;99.90;;;;;;4964033;28;20043;-68
2023/12/24 05:47:45;;;;;;;0.00;0.00;;;10.20;99.90;;;;;;4968261;28;20051;-67
2023/12/24 05:50:11;;;;;;;4.13;1.65;;;10.20;99.90;;;;;;4957644;28;20133;-68
2023/12/24 05:52:37;;;;;;;0.28;0.28;;;10.20;99.90;;;;;;4967717;28;20050;-67
2023/12/24 05:55:04;;;;;;;0.13;0.13;;;10.20;99.90;;;;;;4965306;28;20051;-68
2023/12/24 05:57:29;;;;;;;0.10;0.10;;;10.20;99.90;;;;;;4967624;28;20035;-67
2023/12/24 05:59:55;;;;;;;9.55;3.13;;;10.20;99.90;;;;;;4962967;28;20405;-67
2023/12/24 06:02:21;;;;;;;0.10;0.10;;;10.20;99.90;;;;;;4973259;28;20104;-67
2023/12/24 06:04:47;;;;;;;0.05;0.05;;;10.20;99.90;;;;;;4967057;28;20054;-68
2023/12/24 06:07:12;;;;;;;2.47;2.28;;;10.20;99.90;;;;;;4961418;28;20043;-67
2023/12/24 06:09:38;;;;;;;0.10;0.10;;;10.20;99.90;;;;;;4962752;28;20054;-68
2023/12/24 06:12:04;;;;;;;0.00;0.00;;;10.20;99.90;;;;;;4959325;28;20427;-68
2023/12/24 06:14:30;;;;;;;0.10;0.10;;;10.30;99.90;;;;;;4958669;28;20403;-68
2023/12/24 06:16:56;;;;;;;0.17;0.17;;;10.20;99.90;;;;;;4964881;28;20490;-67
2023/12/24 06:19:22;;;;;;;0.45;0.45;;;10.20;99.90;;;;;;4976033;28;20039;-68
2023/12/24 06:21:48;;;;;;;0.47;0.47;;;10.20;99.90;;;;;;4972169;28;20120;-67
2023/12/24 06:24:13;;;;;;;0.10;0.10;;;10.20;99.90;;;;;;4960629;28;20061;-67
2023/12/24 06:26:39;;;;;;;0.28;0.28;;;10.30;99.90;;;;;;4970674;28;20537;-67
2023/12/24 06:29:04;;;;;;;0.13;0.13;;;10.30;99.90;;;;;;4972687;28;20053;-67
2023/12/24 06:31:30;;;;;;;0.10;0.10;;;10.30;99.90;;;;;;4966699;28;20055;-67
2023/12/24 06:33:56;;;;;;;0.20;0.20;;;10.30;99.90;;;;;;4973263;28;20083;-68
2023/12/24 06:36:21;;;;;;;0.00;0.00;;;10.30;99.90;;;;;;4965086;28;20498;-67
2023/12/24 06:38:47;;;;;;;0.00;0.00;;;10.30;99.90;;;;;;4977642;28;20077;-67
2023/12/24 06:41:12;;;;;;;0.10;0.10;;;10.30;99.90;;;;;;4965007;28;20141;-68
2023/12/24 06:43:38;;;;;;;0.68;0.68;;;10.40;99.90;;;;;;4966395;28;20038;-68
2023/12/24 06:46:06;;;;;;;0.05;0.05;;;10.40;99.90;;;;;;4976786;28;20053;-67
2023/12/24 06:48:32;;;;;;;0.00;0.00;;;10.40;99.90;;;;;;4975240;28;20093;-68
2023/12/24 06:50:58;;;;;;;1.55;1.45;;;10.40;99.90;;;;;;4963701;28;20078;-68
2023/12/24 06:53:24;;;;;;;0.00;0.00;;;10.40;99.90;;;;;;4970760;28;20494;-67
2023/12/24 06:55:50;;;;;;;0.15;0.15;;;10.40;99.90;;;;;;4968729;28;20057;-67
2023/12/24 06:58:15;;;;;;;0.00;0.00;;;10.50;99.90;;;;;;4961870;28;20043;-67
2023/12/24 07:00:41;;;;;;;1.17;0.90;;;10.50;99.90;;;;;;4963910;28;20573;-67
2023/12/24 07:03:07;;;;;;;0.20;0.20;;;10.50;99.90;;;;;;4969469;28;20046;-67
2023/12/24 07:05:35;;;;;;;1.55;1.45;;;10.50;99.90;;;;;;4963296;28;20043;-67
2023/12/24 07:08:01;;;;;;;4.18;2.15;;;10.50;99.90;;;;;;4970183;28;20153;-67
2023/12/24 07:10:27;;;;;;;0.45;0.45;;;10.50;99.90;;;;;;4971932;28;20105;-67
2023/12/24 07:12:52;;;;;;;0.43;0.35;;;10.50;99.90;;;;;;4973779;28;20038;-67
2023/12/24 07:15:18;;;;;;;0.20;0.20;;;10.50;99.90;;;;;;4962083;28;20047;-67
2023/12/24 07:17:44;;;;;;;1.20;1.17;;;10.60;99.90;;;;;;4961444;28;20058;-67
2023/12/24 07:20:11;;;;;;;0.10;0.10;;;10.60;99.90;;;;;;4964114;28;20486;-67
2023/12/24 07:22:37;;;;;;;2.60;1.17;;;10.60;99.90;;;;;;4967888;28;20074;-67
2023/12/24 07:25:03;;;;;;;0.10;0.10;;;10.70;99.90;;;;;;4979860;28;20078;-67
2023/12/24 07:27:28;;;;;;;0.60;0.60;;;10.70;99.90;;;;;;4966121;28;20113;-67
2023/12/24 07:29:54;;;;;;;1.50;1.40;;;10.70;99.90;;;;;;4954443;28;20499;-67
2023/12/24 07:32:19;;;;;;;0.40;0.40;;;10.70;99.90;;;;;;4970158;28;20051;-67
2023/12/24 07:34:45;;;;;;;0.10;0.10;;;10.70;99.90;;;;;;4965668;28;20128;-67
2023/12/24 07:37:13;;;;;;;2.55;0.90;;;10.70;99.90;;;;;;4968751;28;20100;-67
2023/12/24 07:39:39;;;;;;;0.40;0.40;;;10.70;99.90;;;;;;4967498;28;20686;-67
2023/12/24 07:42:05;;;;;;;0.30;0.30;;;10.70;99.90;;;;;;4964574;28;20058;-68
2023/12/24 07:44:30;;;;;;;0.20;0.20;;;10.70;99.90;;;;;;4960305;28;20059;-68
2023/12/24 07:46:56;;;;;;;0.10;0.10;;;10.70;99.90;;;;;;4958733;28;20139;-67
2023/12/24 07:49:22;;;;;;;0.10;0.10;;;10.70;99.90;;;;;;4967722;28;20047;-67
2023/12/24 07:51:48;;;;;;;0.15;0.15;;;10.70;99.90;;;;;;4971339;28;20154;-67
2023/12/24 07:54:14;;;;;;;0.30;0.30;;;10.70;99.90;;;;;;4965382;28;20051;-67
2023/12/24 07:56:40;;;;;;;0.10;0.10;;;10.70;99.90;;;;;;4969244;28;20054;-68
2023/12/24 07:59:05;;;;;;;0.73;0.73;;;10.70;99.90;;;;;;4973118;28;20038;-68
2023/12/24 08:01:31;;;;;;;0.43;0.43;;;10.70;99.90;;;;;;4966573;28;20455;-68
2023/12/24 08:03:56;;;;;;;2.85;1.85;;;10.80;99.90;;;;;;4967963;28;20153;-68
2023/12/24 08:06:22;;;;;;;0.32;0.32;;;10.80;99.90;;;;;;4971231;28;20039;-68
2023/12/24 08:08:48;;;;;;;0.10;0.10;;;10.80;99.90;;;;;;4962973;28;20878;-67
2023/12/24 08:11:13;;;;;;;0.43;0.43;;;10.80;99.90;;;;;;4960986;28;20174;-67
2023/12/24 08:13:39;;;;;;;1.85;1.75;;;10.80;99.90;;;;;;4968967;28;20545;-68
2023/12/24 08:16:06;;;;;;;0.10;0.10;;;10.80;99.90;;;;;;4969444;28;20058;-67
2023/12/24 08:18:31;;;;;;;0.30;0.30;;;10.80;99.90;;;;;;4970105;28;20171;-68
2023/12/24 08:20:57;;;;;;;0.10;0.10;;;10.80;99.90;;;;;;4966258;28;20166;-67
2023/12/24 08:23:22;;;;;;;2.83;2.65;;;10.80;99.90;;;;;;4971149;28;20034;-67
2023/12/24 08:25:48;;;;;;;0.65;0.65;;;10.80;99.90;;;;;;4969261;28;20072;-68
2023/12/24 08:28:14;;;;;;;0.10;0.10;;;10.80;99.90;;;;;;4967791;28;20035;-67
2023/12/24 08:30:39;;;;;;;2.38;0.77;;;10.90;99.90;;;;;;4964081;28;20054;-67
2023/12/24 08:33:06;;;;;;;0.32;0.32;;;10.90;99.90;;;;;;4970185;28;20493;-67
2023/12/24 08:35:32;;;;;;;2.35;1.85;;;10.90;99.90;;;;;;4963219;28;20047;-68
2023/12/24 08:37:58;;;;;;;0.08;0.08;;;10.90;99.90;;;;;;4965922;28;20051;-67
2023/12/24 08:40:27;;;;;;;4.57;1.30;;;10.90;99.90;;;;;;4961018;28;20450;-68
2023/12/24 08:42:53;;;;;;;0.90;0.90;;;10.90;99.90;;;;;;4956068;28;20058;-68
2023/12/24 08:45:19;;;;;;;0.10;0.10;;;10.90;99.90;;;;;;4956565;28;20043;-68
2023/12/24 08:47:44;;;;;;;3.92;1.58;;;10.90;99.90;;;;;;4963706;28;20058;-68
2023/12/24 08:50:10;;;;;;;0.63;0.63;;;11.00;99.90;;;;;;4957505;28;20043;-68
2023/12/24 08:52:36;;;;;;;0.10;0.10;;;11.00;99.90;;;;;;4959200;28;20047;-68
2023/12/24 08:55:02;;;;;;;0.57;0.57;;;11.10;99.90;;;;;;4960463;28;20051;-67
2023/12/24 08:57:27;;;;;;;0.00;0.00;;;11.10;99.90;;;;;;4964561;28;20129;-67
2023/12/24 08:59:53;;;;;;;3.00;2.17;;;11.10;99.90;;;;;;4959243;28;20049;-67
2023/12/24 09:02:19;;;;;;;0.10;0.10;;;11.10;99.90;;;;;;4972541;28;20081;-68
2023/12/24 09:04:48;;;;;;;0.10;0.10;;;11.10;99.90;;;;;;4954330;28;20047;-68
2023/12/24 09:07:15;;;;;;;0.10;0.10;;;11.10;99.90;;;;;;4965141;28;20043;-68
2023/12/24 09:09:40;;;;;;;0.10;0.10;;;11.10;99.90;;;;;;4966199;28;20054;-67
2023/12/24 09:12:06;;;;;;;0.30;0.30;;;11.20;99.90;;;;;;4961753;28;20453;-68
2023/12/24 09:14:32;;;;;;;24.83;1.38;;;11.20;99.90;;;;;;4957477;28;20081;-67
2023/12/24 09:16:57;;;;;;;0.32;0.32;;;11.20;99.90;;;;;;4965670;28;20039;-68
2023/12/24 09:19:23;;;;;;;0.30;0.30;;;11.20;99.90;;;;;;4963908;28;20082;-67
2023/12/24 09:21:48;;;;;;;0.00;0.00;;;11.30;99.90;;;;;;4958968;28;20497;-67
2023/12/24 09:24:14;;;;;;;0.10;0.10;;;11.30;99.90;;;;;;4962429;28;20085;-67
2023/12/24 09:26:40;;;;;;;0.25;0.25;;;11.30;99.90;;;;;;4962924;28;20042;-68
2023/12/24 09:29:06;;;;;;;0.47;0.47;;;11.30;99.90;;;;;;4957838;28;20065;-67
2023/12/24 09:31:32;;;;;;;0.45;0.45;;;11.30;99.90;;;;;;4963622;28;20058;-67
2023/12/24 09:33:58;;;;;;;0.10;0.10;;;11.40;99.90;;;;;;4954938;28;20578;-66
2023/12/24 09:36:23;;;;;;;4.13;1.08;;;11.40;99.90;;;;;;4968470;28;20039;-67
2023/12/24 09:38:49;;;;;;;0.50;0.50;;;11.40;99.90;;;;;;4965026;28;20133;-67
2023/12/24 09:41:17;;;;;;;0.30;0.30;;;11.40;99.90;;;;;;4966185;28;20097;-67
2023/12/24 09:43:43;;;;;;;0.55;0.55;;;11.40;99.90;;;;;;4961334;28;20054;-67
2023/12/24 09:46:09;;;;;;;0.00;0.00;;;11.40;99.90;;;;;;4967742;28;20038;-67
2023/12/24 09:48:34;;;;;;;0.10;0.10;;;11.50;99.90;;;;;;4964254;28;20038;-67
2023/12/24 09:51:01;;;;;;;0.10;0.10;;;11.50;99.90;;;;;;4972521;28;20501;-67
2023/12/24 09:53:27;;;;;;;0.10;0.10;;;11.50;99.90;;;;;;4956152;28;20051;-67
2023/12/24 09:55:53;;;;;;;0.10;0.10;;;11.50;99.90;;;;;;4969339;28;20057;-67
2023/12/24 09:58:18;;;;;;;1.13;1.02;;;11.50;99.90;;;;;;4960509;28;20039;-67
2023/12/24 10:00:44;;;;;;;0.10;0.10;;;11.60;99.90;;;;;;4963034;28;20054;-67
2023/12/24 10:03:09;;;;;;;0.10;0.10;;;11.60;99.90;;;;;;4966368;28;20134;-66
2023/12/24 10:06:14;;;;;;;0.10;0.10;;;11.60;99.90;;;;;;4956087;28;20046;-67
2023/12/24 10:08:40;;;;;;;0.10;0.10;;;11.60;99.90;;;;;;4965704;28;20054;-67
2023/12/24 10:11:17;;;;;;;0.00;0.00;;;11.60;99.90;;;;;;4959623;28;20047;-67
2023/12/24 10:13:44;;;;;;;0.10;0.10;;;11.60;99.90;;;;;;4959231;28;20051;-67
2023/12/24 10:16:09;;;;;;;0.30;0.30;;;11.60;99.90;;;;;;4964376;28;20989;-67
2023/12/24 10:18:36;;;;;;;0.80;0.70;;;11.70;99.90;;;;;;4954099;28;20123;-67
2023/12/24 10:21:08;;;;;;;1.05;1.05;;;11.60;99.90;;;;;;4960966;28;20055;-67
2023/12/24 10:23:34;;;;;;;0.10;0.10;;;11.60;99.90;;;;;;4957944;28;20047;-67
2023/12/24 10:26:08;;;;;;;0.55;0.55;;;11.70;99.90;;;;;;4980142;28;20513;-67
2023/12/24 10:28:44;;;;;;;0.20;0.20;;;11.70;99.90;;;;;;4966134;28;20058;-66
2023/12/24 10:31:10;;;;;;;0.10;0.10;;;11.70;99.90;;;;;;4970021;28;20512;-66
2023/12/24 10:33:39;;;;;;;0.10;0.10;;;11.60;99.90;;;;;;4962516;28;20043;-67
2023/12/24 10:36:06;;;;;;;0.15;0.15;;;11.70;99.90;;;;;;4964169;28;20035;-66
2023/12/24 10:38:36;;;;;;;0.10;0.10;;;11.60;99.90;;;;;;4968594;28;20137;-67
2023/12/24 10:41:03;;;;;;;1.17;0.80;;;11.70;99.90;;;;;;4957677;28;20057;-67
2023/12/24 10:43:29;;;;;;;0.20;0.20;;;11.60;99.90;;;;;;4967457;28;20078;-67
2023/12/24 10:45:58;;;;;;;0.68;0.68;;;11.60;99.90;;;;;;4958888;28;20158;-67
2023/12/24 10:48:23;;;;;;;0.38;0.38;;;11.60;99.90;;;;;;4966360;28;20104;-66
2023/12/24 10:50:50;;;;;;;0.10;0.10;;;11.60;99.90;;;;;;4962827;28;20502;-67
2023/12/24 10:53:16;;;;;;;0.10;0.10;;;11.60;99.90;;;;;;4959881;28;20047;-67
2023/12/24 10:55:50;;;;;;;0.00;0.00;;;11.60;99.90;;;;;;4965096;28;20073;-67
2023/12/24 10:58:55;;;;;;;0.30;0.30;;;11.60;99.90;;;;;;4968127;28;20894;-67
2023/12/24 11:01:21;;;;;;;0.08;0.08;;;11.50;99.90;;;;;;4963691;28;20042;-67
2023/12/24 11:03:49;;;;;;;0.43;0.43;;;11.60;99.90;;;;;;4968184;28;20397;-66
2023/12/24 11:06:36;;;;;;;0.65;0.65;;;11.60;99.90;;;;;;4965300;28;20046;-66
2023/12/24 11:09:24;;;;;;;0.28;0.28;;;11.60;99.90;;;;;;4959087;28;20047;-66
2023/12/24 11:11:59;;;;;;;0.10;0.10;;;11.60;99.90;;;;;;4982085;28;20051;-66
2023/12/24 11:14:45;;;;;;;0.00;0.00;;;11.60;99.90;;;;;;4963056;28;20039;-66
2023/12/24 11:17:37;;;;;;;0.10;0.10;;;11.60;99.90;;;;;;4961950;28;20053;-66
2023/12/24 11:20:19;;;;;;;0.10;0.10;;;11.70;99.90;;;;;;4966599;28;20122;-66
2023/12/24 11:23:03;;;;;;;0.10;0.10;;;11.70;99.90;;;;;;4967385;28;20051;-66
2023/12/24 11:25:58;;;;;;;1.25;1.00;;;11.70;99.90;;;;;;4963020;28;20560;-67
2023/12/24 11:28:26;;;;;;;0.35;0.35;;;11.70;99.90;;;;;;4956421;28;20478;-66
2023/12/24 11:30:52;;;;;;;0.00;0.00;;;11.80;99.90;;;;;;4961077;28;20594;-66
2023/12/24 11:33:41;;;;;;;5.50;2.50;;;11.80;99.90;;;;;;4958784;28;20122;-66
2023/12/24 11:36:11;;;;;;;0.65;0.65;;;11.80;99.90;;;;;;4958427;28;20043;-66
2023/12/24 11:38:39;;;;;;;8.88;1.05;;;11.80;99.90;;;;;;4961811;28;20499;-67
2023/12/24 11:41:18;;;;;;;0.10;0.10;;;11.80;99.90;;;;;;4965866;28;20098;-67
2023/12/24 11:43:55;;;;;;;1.25;1.20;;;11.80;99.90;;;;;;4968743;28;20066;-67
2023/12/24 11:46:22;;;;;;;0.70;0.60;;;11.80;99.90;;;;;;4960494;28;20122;-66
2023/12/24 11:48:48;;;;;;;0.10;0.10;;;11.80;99.90;;;;;;4959821;28;20057;-66
2023/12/24 11:51:14;;;;;;;0.08;0.08;;;11.80;99.90;;;;;;4975623;28;20050;-67
2023/12/24 11:53:41;;;;;;;0.10;0.10;;;11.80;99.90;;;;;;4971309;28;20609;-66
2023/12/24 11:56:15;;;;;;;0.80;0.65;;;11.80;99.90;;;;;;4961121;28;20039;-66
2023/12/24 11:58:48;;;;;;;0.10;0.10;;;11.80;99.90;;;;;;4970139;28;20047;-67
2023/12/24 12:01:14;;;;;;;0.35;0.35;;;11.80;99.90;;;;;;4965313;28;20740;-67
2023/12/24 12:03:39;;;;;;;0.08;0.08;;;11.80;99.90;;;;;;4974301;28;20042;-66
2023/12/24 12:06:06;;;;;;;0.00;0.00;;;11.80;99.90;;;;;;4961707;28;20133;-67
2023/12/24 12:08:32;;;;;;;0.30;0.30;;;11.90;99.90;;;;;;4962632;28;20055;-66
2023/12/24 12:10:58;;;;;;;0.10;0.10;;;11.90;99.90;;;;;;4970713;28;20051;-66
2023/12/24 12:13:24;;;;;;;0.17;0.17;;;11.90;99.90;;;;;;4969522;28;20051;-67
2023/12/24 12:15:50;;;;;;;0.35;0.30;;;11.90;99.90;;;;;;4964296;28;20506;-66
2023/12/24 12:18:16;;;;;;;0.17;0.17;;;11.90;99.90;;;;;;4966856;28;20079;-67
2023/12/24 12:20:43;;;;;;;0.00;0.00;;;11.90;99.90;;;;;;4972775;28;20049;-66
2023/12/24 12:23:09;;;;;;;0.10;0.10;;;11.90;99.90;;;;;;4969361;28;20043;-67
2023/12/24 12:25:35;;;;;;;0.10;0.10;;;11.90;99.90;;;;;;4967628;28;20671;-67
2023/12/24 12:28:01;;;;;;;0.10;0.10;;;11.90;99.90;;;;;;4979841;28;20097;-67
2023/12/24 12:30:26;;;;;;;0.15;0.15;;;11.90;99.90;;;;;;4959953;28;20595;-67
2023/12/24 12:32:52;;;;;;;0.00;0.00;;;11.90;99.90;;;;;;4954746;28;20059;-68
2023/12/24 12:35:17;;;;;;;0.10;0.10;;;11.90;99.90;;;;;;4970473;28;20046;-66
2023/12/24 12:37:44;;;;;;;0.25;0.25;;;12.00;99.90;;;;;;4971298;28;20051;-67
2023/12/24 12:40:10;;;;;;;7.53;1.70;;;12.00;99.90;;;;;;4973205;28;20043;-67
2023/12/24 12:42:35;;;;;;;0.00;0.00;;;12.00;99.90;;;;;;4967551;28;20726;-67
2023/12/24 12:45:02;;;;;;;2.33;1.25;;;12.10;99.90;;;;;;4966238;28;20134;-67
2023/12/24 12:47:27;;;;;;;0.00;0.00;;;12.10;99.90;;;;;;4955904;28;20061;-67
2023/12/24 12:49:54;;;;;;;0.28;0.28;;;12.10;99.90;;;;;;4961261;28;20050;-67